sensor_id;sensor_type;location;lat;lon;timestamp;pressure;altitude;pressure_sealevel;temperature;humidity
46598;BME280;32318;48.858;8.252;2022-12-18T00:04:43;101495.53;;;-6.23;85.07
46598;BME280;32318;48.858;8.252;2022-12-18T00:12:44;101498.00;;;-6.14;85.24
46598;BME280;32318;48.858;8.252;2022-12-18T00:20:44;101493.81;;;-6.24;85.50
46598;BME280;32318;48.858;8.252;2022-12-18T00:28:45;101495.56;;;-6.25;85.42
46598;BME280;32318;48.858;8.252;2022-12-18T00:36:47;101500.84;;;-6.31;85.10
46598;BME280;32318;48.858;8.252;2022-12-18T00:44:48;101493.25;;;-6.42;85.01
46598;BME280;32318;48.858;8.252;2022-12-18T00:52:48;101488.22;;;-6.53;84.17
46598;BME280;32318;48.858;8.252;2022-12-18T01:00:48;101488.31;;;-6.59;84.03
46598;BME280;32318;48.858;8.252;2022-12-18T01:08:48;101488.47;;;-6.70;84.61
46598;BME280;32318;48.858;8.252;2022-12-18T01:16:49;101491.94;;;-6.69;85.03
46598;BME280;32318;48.858;8.252;2022-12-18T01:24:49;101486.91;;;-6.82;85.98
46598;BME280;32318;48.858;8.252;2022-12-18T01:32:49;101478.19;;;-6.78;85.51
46598;BME280;32318;48.858;8.252;2022-12-18T01:40:57;101498.03;;;-6.72;86.62
46598;BME280;32318;48.858;8.252;2022-12-18T01:48:59;101518.63;;;-6.59;85.49
46598;BME280;32318;48.858;8.252;2022-12-18T01:57:00;101495.16;;;-6.55;86.58
46598;BME280;32318;48.858;8.252;2022-12-18T02:05:02;101501.00;;;-6.39;86.82
46598;BME280;32318;48.858;8.252;2022-12-18T02:21:32;101509.59;;;-6.35;85.97
46598;BME280;32318;48.858;8.252;2022-12-18T02:29:46;101513.19;;;-6.42;85.61
46598;BME280;32318;48.858;8.252;2022-12-18T02:37:49;101510.78;;;-6.58;85.05
46598;BME280;32318;48.858;8.252;2022-12-18T02:46:00;101499.72;;;-6.71;85.10
46598;BME280;32318;48.858;8.252;2022-12-18T02:54:24;101505.94;;;-6.81;85.01
46598;BME280;32318;48.858;8.252;2022-12-18T03:02:38;101525.06;;;-6.87;84.60
46598;BME280;32318;48.858;8.252;2022-12-18T03:10:42;101524.31;;;-6.97;84.33
46598;BME280;32318;48.858;8.252;2022-12-18T03:18:48;101516.66;;;-7.07;83.41
46598;BME280;32318;48.858;8.252;2022-12-18T03:26:54;101532.25;;;-7.07;84.59
46598;BME280;32318;48.858;8.252;2022-12-18T03:35:01;101527.75;;;-6.95;85.10
46598;BME280;32318;48.858;8.252;2022-12-18T03:51:52;101511.13;;;-6.80;84.88
46598;BME280;32318;48.858;8.252;2022-12-18T03:59:57;101504.66;;;-6.52;84.96
46598;BME280;32318;48.858;8.252;2022-12-18T04:07:59;101506.19;;;-6.39;84.54
46598;BME280;32318;48.858;8.252;2022-12-18T04:16:01;101504.31;;;-6.31;84.68
46598;BME280;32318;48.858;8.252;2022-12-18T04:24:02;101497.25;;;-6.22;84.74
46598;BME280;32318;48.858;8.252;2022-12-18T04:32:02;101492.81;;;-6.16;84.66
46598;BME280;32318;48.858;8.252;2022-12-18T04:40:03;101504.03;;;-6.12;85.19
46598;BME280;32318;48.858;8.252;2022-12-18T04:48:04;101514.56;;;-6.21;84.34
46598;BME280;32318;48.858;8.252;2022-12-18T04:56:07;101506.78;;;-6.21;84.22
46598;BME280;32318;48.858;8.252;2022-12-18T05:04:07;101524.34;;;-6.37;84.23
46598;BME280;32318;48.858;8.252;2022-12-18T05:12:08;101528.56;;;-6.30;84.92
46598;BME280;32318;48.858;8.252;2022-12-18T05:20:09;101525.84;;;-6.24;86.18
46598;BME280;32318;48.858;8.252;2022-12-18T05:28:09;101519.03;;;-6.29;86.38
46598;BME280;32318;48.858;8.252;2022-12-18T05:36:09;101508.72;;;-6.34;86.63
46598;BME280;32318;48.858;8.252;2022-12-18T05:44:10;101517.31;;;-6.31;86.78
46598;BME280;32318;48.858;8.252;2022-12-18T05:52:10;101528.53;;;-6.28;86.64
46598;BME280;32318;48.858;8.252;2022-12-18T06:00:11;101537.03;;;-6.17;86.53
46598;BME280;32318;48.858;8.252;2022-12-18T06:08:13;101541.28;;;-6.11;86.35
46598;BME280;32318;48.858;8.252;2022-12-18T06:16:13;101558.50;;;-6.06;86.49
46598;BME280;32318;48.858;8.252;2022-12-18T06:24:13;101577.69;;;-6.15;86.00
46598;BME280;32318;48.858;8.252;2022-12-18T06:32:14;101580.38;;;-6.18;86.26
46598;BME280;32318;48.858;8.252;2022-12-18T06:40:15;101582.06;;;-6.15;86.38
46598;BME280;32318;48.858;8.252;2022-12-18T06:48:15;101589.94;;;-6.20;86.26
46598;BME280;32318;48.858;8.252;2022-12-18T06:56:15;101599.53;;;-6.25;86.39
46598;BME280;32318;48.858;8.252;2022-12-18T07:04:15;101597.69;;;-6.18;86.44
46598;BME280;32318;48.858;8.252;2022-12-18T07:12:16;101594.97;;;-6.10;86.48
46598;BME280;32318;48.858;8.252;2022-12-18T07:20:17;101603.56;;;-6.05;86.28
46598;BME280;32318;48.858;8.252;2022-12-18T07:28:17;101596.72;;;-6.09;86.70
46598;BME280;32318;48.858;8.252;2022-12-18T07:36:17;101607.09;;;-6.09;86.74
46598;BME280;32318;48.858;8.252;2022-12-18T07:44:18;101601.75;;;-6.00;86.38
46598;BME280;32318;48.858;8.252;2022-12-18T07:52:18;101628.69;;;-6.04;86.16
46598;BME280;32318;48.858;8.252;2022-12-18T08:00:19;101636.31;;;-5.95;86.28
46598;BME280;32318;48.858;8.252;2022-12-18T08:08:19;101639.75;;;-5.93;86.63
46598;BME280;32318;48.858;8.252;2022-12-18T08:16:21;101637.94;;;-5.88;86.38
46598;BME280;32318;48.858;8.252;2022-12-18T08:24:21;101638.66;;;-5.79;86.29
46598;BME280;32318;48.858;8.252;2022-12-18T08:32:21;101630.84;;;-5.79;86.34
46598;BME280;32318;48.858;8.252;2022-12-18T08:40:21;101619.53;;;-5.75;85.49
46598;BME280;32318;48.858;8.252;2022-12-18T08:48:22;101601.31;;;-5.75;85.70
46598;BME280;32318;48.858;8.252;2022-12-18T08:56:22;101578.59;;;-5.64;85.72
46598;BME280;32318;48.858;8.252;2022-12-18T09:04:22;101591.75;;;-5.75;84.92
46598;BME280;32318;48.858;8.252;2022-12-18T09:12:23;101592.69;;;-5.77;84.67
46598;BME280;32318;48.858;8.252;2022-12-18T09:20:23;101603.09;;;-5.77;83.91
46598;BME280;32318;48.858;8.252;2022-12-18T09:28:24;101623.06;;;-5.79;84.40
46598;BME280;32318;48.858;8.252;2022-12-18T09:36:24;101640.53;;;-5.86;82.91
46598;BME280;32318;48.858;8.252;2022-12-18T09:44:38;101642.63;;;-6.10;82.46
46598;BME280;32318;48.858;8.252;2022-12-18T09:52:43;101656.13;;;-5.88;84.54
46598;BME280;32318;48.858;8.252;2022-12-18T10:00:45;101673.91;;;-5.60;84.04
46598;BME280;32318;48.858;8.252;2022-12-18T10:08:50;101669.41;;;-5.50;83.15
46598;BME280;32318;48.858;8.252;2022-12-18T10:25:19;101642.41;;;-5.44;82.96
46598;BME280;32318;48.858;8.252;2022-12-18T10:33:24;101634.66;;;-5.46;82.25
46598;BME280;32318;48.858;8.252;2022-12-18T10:41:26;101625.97;;;-5.45;82.63
46598;BME280;32318;48.858;8.252;2022-12-18T10:49:29;101635.50;;;-5.44;82.08
46598;BME280;32318;48.858;8.252;2022-12-18T10:57:35;101623.41;;;-5.46;82.77
46598;BME280;32318;48.858;8.252;2022-12-18T11:05:37;101623.91;;;-5.27;82.25
46598;BME280;32318;48.858;8.252;2022-12-18T11:13:38;101631.75;;;-5.29;82.89
46598;BME280;32318;48.858;8.252;2022-12-18T11:21:40;101623.19;;;-5.36;82.61
46598;BME280;32318;48.858;8.252;2022-12-18T11:29:41;101618.88;;;-5.37;83.02
46598;BME280;32318;48.858;8.252;2022-12-18T11:37:43;101620.50;;;-5.32;81.65
46598;BME280;32318;48.858;8.252;2022-12-18T11:46:01;101597.28;;;-5.43;81.93
46598;BME280;32318;48.858;8.252;2022-12-18T11:54:15;101590.31;;;-5.41;82.07
46598;BME280;32318;48.858;8.252;2022-12-18T12:35:55;101579.03;;;-5.42;82.08
46598;BME280;32318;48.858;8.252;2022-12-18T12:44:03;101576.44;;;-5.40;82.72
46598;BME280;32318;48.858;8.252;2022-12-18T12:52:12;101579.13;;;-5.45;83.24
46598;BME280;32318;48.858;8.252;2022-12-18T13:00:18;101566.84;;;-5.38;83.11
46598;BME280;32318;48.858;8.252;2022-12-18T13:08:32;101546.16;;;-5.46;83.38
46598;BME280;32318;48.858;8.252;2022-12-18T13:16:50;101513.31;;;-5.52;83.74
46598;BME280;32318;48.858;8.252;2022-12-18T13:24:51;101523.56;;;-5.44;83.84
46598;BME280;32318;48.858;8.252;2022-12-18T13:49:24;101506.81;;;-5.30;84.33
46598;BME280;32318;48.858;8.252;2022-12-18T13:57:30;101492.97;;;-5.31;84.32
46598;BME280;32318;48.858;8.252;2022-12-18T14:05:33;101488.38;;;-5.20;84.62
46598;BME280;32318;48.858;8.252;2022-12-18T14:13:37;101489.28;;;-5.22;84.49
46598;BME280;32318;48.858;8.252;2022-12-18T14:21:40;101494.50;;;-5.21;84.63
46598;BME280;32318;48.858;8.252;2022-12-18T14:29:42;101492.50;;;-5.09;84.85
46598;BME280;32318;48.858;8.252;2022-12-18T14:37:43;101492.34;;;-5.01;84.83
46598;BME280;32318;48.858;8.252;2022-12-18T14:45:44;101486.09;;;-4.94;85.35
46598;BME280;32318;48.858;8.252;2022-12-18T14:53:47;101486.75;;;-4.84;85.37
46598;BME280;32318;48.858;8.252;2022-12-18T15:01:58;101490.19;;;-4.82;85.23
46598;BME280;32318;48.858;8.252;2022-12-18T15:10:09;101487.63;;;-4.84;84.92
46598;BME280;32318;48.858;8.252;2022-12-18T15:18:14;101492.06;;;-4.89;84.78
46598;BME280;32318;48.858;8.252;2022-12-18T15:26:19;101487.63;;;-4.85;85.24
46598;BME280;32318;48.858;8.252;2022-12-18T15:34:21;101487.72;;;-4.89;84.73
46598;BME280;32318;48.858;8.252;2022-12-18T15:42:22;101481.69;;;-4.91;85.03
46598;BME280;32318;48.858;8.252;2022-12-18T15:50:41;101480.75;;;-4.88;85.12
46598;BME280;32318;48.858;8.252;2022-12-18T15:58:41;101492.84;;;-4.85;85.00
46598;BME280;32318;48.858;8.252;2022-12-18T16:06:42;101497.94;;;-4.79;85.18
46598;BME280;32318;48.858;8.252;2022-12-18T16:14:43;101484.03;;;-4.78;84.93
46598;BME280;32318;48.858;8.252;2022-12-18T16:22:44;101476.22;;;-4.78;84.86
46598;BME280;32318;48.858;8.252;2022-12-18T16:30:45;101483.13;;;-4.77;84.93
46598;BME280;32318;48.858;8.252;2022-12-18T16:38:46;101479.72;;;-4.81;84.81
46598;BME280;32318;48.858;8.252;2022-12-18T16:46:46;101479.03;;;-4.88;84.80
46598;BME280;32318;48.858;8.252;2022-12-18T16:54:47;101473.69;;;-4.83;85.22
46598;BME280;32318;48.858;8.252;2022-12-18T17:02:50;101465.84;;;-4.81;85.26
46598;BME280;32318;48.858;8.252;2022-12-18T17:10:50;101455.31;;;-4.77;85.29
46598;BME280;32318;48.858;8.252;2022-12-18T17:18:54;101460.47;;;-4.75;85.36
46598;BME280;32318;48.858;8.252;2022-12-18T17:26:54;101456.00;;;-4.68;85.68
46598;BME280;32318;48.858;8.252;2022-12-18T17:34:54;101447.34;;;-4.70;84.98
46598;BME280;32318;48.858;8.252;2022-12-18T17:42:55;101455.16;;;-4.69;85.52
46598;BME280;32318;48.858;8.252;2022-12-18T17:51:00;101449.16;;;-4.73;85.26
46598;BME280;32318;48.858;8.252;2022-12-18T17:59:03;101438.75;;;-4.74;85.09
46598;BME280;32318;48.858;8.252;2022-12-18T18:07:07;101435.31;;;-4.75;85.59
46598;BME280;32318;48.858;8.252;2022-12-18T18:15:10;101454.31;;;-4.71;85.39
46598;BME280;32318;48.858;8.252;2022-12-18T18:23:12;101442.03;;;-4.66;85.48
46598;BME280;32318;48.858;8.252;2022-12-18T18:31:12;101427.41;;;-4.72;85.08
46598;BME280;32318;48.858;8.252;2022-12-18T18:39:13;101417.34;;;-4.87;84.96
46598;BME280;32318;48.858;8.252;2022-12-18T18:47:14;101405.28;;;-4.91;85.12
46598;BME280;32318;48.858;8.252;2022-12-18T18:55:14;101384.38;;;-4.88;85.89
46598;BME280;32318;48.858;8.252;2022-12-18T19:03:14;101384.97;;;-4.77;85.71
46598;BME280;32318;48.858;8.252;2022-12-18T19:11:16;101370.19;;;-4.76;85.33
46598;BME280;32318;48.858;8.252;2022-12-18T19:19:35;101368.41;;;-4.74;85.26
46598;BME280;32318;48.858;8.252;2022-12-18T19:27:35;101359.75;;;-4.76;85.16
46598;BME280;32318;48.858;8.252;2022-12-18T19:35:37;101372.00;;;-4.78;84.86
46598;BME280;32318;48.858;8.252;2022-12-18T19:43:38;101364.31;;;-4.84;85.07
46598;BME280;32318;48.858;8.252;2022-12-18T19:51:39;101349.44;;;-4.79;84.78
46598;BME280;32318;48.858;8.252;2022-12-18T19:59:42;101399.97;;;-4.86;86.26
46598;BME280;32318;48.858;8.252;2022-12-18T20:07:42;101366.03;;;-4.83;86.30
46598;BME280;32318;48.858;8.252;2022-12-18T20:15:43;101387.47;;;-4.72;86.75
46598;BME280;32318;48.858;8.252;2022-12-18T20:23:43;101390.69;;;-4.62;86.74
46598;BME280;32318;48.858;8.252;2022-12-18T20:31:43;101395.78;;;-4.58;86.51
46598;BME280;32318;48.858;8.252;2022-12-18T20:39:43;101381.69;;;-4.50;86.32
46598;BME280;32318;48.858;8.252;2022-12-18T20:47:44;101374.72;;;-4.48;86.39
46598;BME280;32318;48.858;8.252;2022-12-18T20:55:44;101358.25;;;-4.50;85.94
46598;BME280;32318;48.858;8.252;2022-12-18T21:03:45;101342.53;;;-4.47;86.12
46598;BME280;32318;48.858;8.252;2022-12-18T21:11:45;101341.72;;;-4.49;85.85
46598;BME280;32318;48.858;8.252;2022-12-18T21:20:04;101330.41;;;-4.48;86.09
46598;BME280;32318;48.858;8.252;2022-12-18T21:28:05;101343.34;;;-4.45;85.99
46598;BME280;32318;48.858;8.252;2022-12-18T21:36:05;101333.00;;;-4.48;85.98
46598;BME280;32318;48.858;8.252;2022-12-18T21:44:07;101311.91;;;-4.39;85.46
46598;BME280;32318;48.858;8.252;2022-12-18T21:52:09;101318.13;;;-4.43;86.27
46598;BME280;32318;48.858;8.252;2022-12-18T22:00:10;101350.03;;;-4.35;86.35
46598;BME280;32318;48.858;8.252;2022-12-18T22:08:12;101356.81;;;-4.28;86.58
46598;BME280;32318;48.858;8.252;2022-12-18T22:16:12;101345.25;;;-4.19;86.18
46598;BME280;32318;48.858;8.252;2022-12-18T22:24:26;101340.97;;;-4.21;86.07
46598;BME280;32318;48.858;8.252;2022-12-18T22:32:29;101367.81;;;-4.16;86.40
46598;BME280;32318;48.858;8.252;2022-12-18T22:40:29;101374.69;;;-4.14;86.25
46598;BME280;32318;48.858;8.252;2022-12-18T22:48:30;101378.06;;;-4.10;86.37
46598;BME280;32318;48.858;8.252;2022-12-18T22:56:30;101372.91;;;-4.13;86.35
46598;BME280;32318;48.858;8.252;2022-12-18T23:04:30;101358.91;;;-4.09;86.18
46598;BME280;32318;48.858;8.252;2022-12-18T23:12:31;101348.50;;;-4.11;86.22
46598;BME280;32318;48.858;8.252;2022-12-18T23:20:33;101329.41;;;-4.11;86.50
46598;BME280;32318;48.858;8.252;2022-12-18T23:28:35;101322.28;;;-4.06;86.49
46598;BME280;32318;48.858;8.252;2022-12-18T23:36:35;101318.72;;;-4.02;85.86
46598;BME280;32318;48.858;8.252;2022-12-18T23:44:36;101315.59;;;-4.15;85.75
46598;BME280;32318;48.858;8.252;2022-12-18T23:52:36;101300.66;;;-4.10;85.17
